Ault, Minnesota
Current Conditions -  °F | °C
As of 12:35 PM on Monday 20 Oct 2014 (Local Time) from KTWM Reporting Station
Overcast Overcast  
Wind Chill: 54°   Ceiling: 3500
Heat Index: 54°   Visibility: 10mi
Dew Point: 32°   Wind: 7mph
Humidity: 44%   Direction: 310°NW
Pressure: 29.96"   Gusts: NA
Location:  47.3998°N, 91.9141°W
Report Text: KTWM 201735Z AUTO 31006KT 10SM OVC035 12/00 A2996 RMK AO2
Loading
Personal Weather Stations






























Interactive Weather Map
Tropical Storm Tracking
New forecast layout! Learn more

10-Day Weather Forecast

Advertisements
Track Severe Weather on mobile